sensor_id;sensor_type;location;lat;lon;timestamp;pressure;altitude;pressure_sealevel;temperature;humidity
8451;BME280;4262;50.980;13.892;2024-01-15T00:01:00;87152.50;;;-142.97;51.37
8451;BME280;4262;50.980;13.892;2024-01-15T00:03:27;87170.25;;;-142.97;51.18
8451;BME280;4262;50.980;13.892;2024-01-15T00:05:55;87164.34;;;-142.97;51.01
8451;BME280;4262;50.980;13.892;2024-01-15T00:08:22;87136.75;;;-142.97;50.88
8451;BME280;4262;50.980;13.892;2024-01-15T00:10:49;87178.13;;;-142.97;51.40
8451;BME280;4262;50.980;13.892;2024-01-15T00:13:16;87193.91;;;-142.97;51.44
8451;BME280;4262;50.980;13.892;2024-01-15T00:15:42;87213.59;;;-142.97;52.56
8451;BME280;4262;50.980;13.892;2024-01-15T00:18:09;87247.13;;;-142.97;55.87
8451;BME280;4262;50.980;13.892;2024-01-15T00:20:36;87316.09;;;-142.97;56.94
8451;BME280;4262;50.980;13.892;2024-01-15T00:23:04;87280.63;;;-142.97;56.61
8451;BME280;4262;50.980;13.892;2024-01-15T00:25:31;87239.22;;;-142.97;55.17
8451;BME280;4262;50.980;13.892;2024-01-15T00:27:58;87262.88;;;-142.97;55.04
8451;BME280;4262;50.980;13.892;2024-01-15T00:30:25;87272.72;;;-142.97;54.78
8451;BME280;4262;50.980;13.892;2024-01-15T00:32:52;87300.31;;;-142.97;55.35
8451;BME280;4262;50.980;13.892;2024-01-15T00:35:19;87280.63;;;-142.97;54.98
8451;BME280;4262;50.980;13.892;2024-01-15T00:37:46;87251.06;;;-142.97;54.26
8451;BME280;4262;50.980;13.892;2024-01-15T00:40:14;87186.00;;;-142.97;53.92
8451;BME280;4262;50.980;13.892;2024-01-15T00:42:41;87241.19;;;-142.97;54.32
8451;BME280;4262;50.980;13.892;2024-01-15T00:45:09;87211.63;;;-142.97;53.98
8451;BME280;4262;50.980;13.892;2024-01-15T00:47:36;87327.91;;;-142.97;54.17
8451;BME280;4262;50.980;13.892;2024-01-15T00:50:03;87298.34;;;-142.97;54.73
8451;BME280;4262;50.980;13.892;2024-01-15T00:52:30;87237.25;;;-142.97;54.33
8451;BME280;4262;50.980;13.892;2024-01-15T00:54:57;87197.84;;;-142.97;53.93
8451;BME280;4262;50.980;13.892;2024-01-15T00:57:26;87233.31;;;-142.97;54.17
8451;BME280;4262;50.980;13.892;2024-01-15T00:59:52;87221.50;;;-142.97;55.01
8451;BME280;4262;50.980;13.892;2024-01-15T01:02:19;87314.13;;;-142.97;55.16
8451;BME280;4262;50.980;13.892;2024-01-15T01:04:46;87308.22;;;-142.97;55.52
8451;BME280;4262;50.980;13.892;2024-01-15T01:07:13;87304.25;;;-142.97;55.38
8451;BME280;4262;50.980;13.892;2024-01-15T01:09:39;87258.94;;;-142.97;55.02
8451;BME280;4262;50.980;13.892;2024-01-15T01:12:06;87300.31;;;-142.97;55.08
8451;BME280;4262;50.980;13.892;2024-01-15T01:14:34;87256.97;;;-142.97;54.59
8451;BME280;4262;50.980;13.892;2024-01-15T01:17:01;87278.66;;;-142.97;55.16
8451;BME280;4262;50.980;13.892;2024-01-15T01:19:28;87371.28;;;-142.97;55.18
8451;BME280;4262;50.980;13.892;2024-01-15T01:21:56;87262.88;;;-142.97;55.13
8451;BME280;4262;50.980;13.892;2024-01-15T01:24:23;87278.66;;;-142.97;54.60
8451;BME280;4262;50.980;13.892;2024-01-15T01:26:50;87333.81;;;-142.97;54.58
8451;BME280;4262;50.980;13.892;2024-01-15T01:29:17;87331.84;;;-142.97;54.47
8451;BME280;4262;50.980;13.892;2024-01-15T01:31:45;87292.44;;;-142.97;54.18
8451;BME280;4262;50.980;13.892;2024-01-15T01:34:14;87184.03;;;-142.97;53.68
8451;BME280;4262;50.980;13.892;2024-01-15T01:36:41;87205.72;;;-142.97;53.20
8451;BME280;4262;50.980;13.892;2024-01-15T01:39:08;87237.25;;;-142.97;53.40
8451;BME280;4262;50.980;13.892;2024-01-15T01:41:35;87201.78;;;-142.97;53.07
8451;BME280;4262;50.980;13.892;2024-01-15T01:44:02;87221.50;;;-142.97;52.88
8451;BME280;4262;50.980;13.892;2024-01-15T01:46:29;87055.94;;;-142.97;53.44
8451;BME280;4262;50.980;13.892;2024-01-15T01:48:58;87215.56;;;-142.97;52.68
8451;BME280;4262;50.980;13.892;2024-01-15T01:51:29;87207.69;;;-142.97;52.72
8451;BME280;4262;50.980;13.892;2024-01-15T01:53:55;87148.56;;;-142.97;52.58
8451;BME280;4262;50.980;13.892;2024-01-15T01:56:22;87205.72;;;-142.97;52.35
8451;BME280;4262;50.980;13.892;2024-01-15T01:58:49;87219.53;;;-142.97;52.43
8451;BME280;4262;50.980;13.892;2024-01-15T02:01:16;87217.56;;;-142.97;52.53
8451;BME280;4262;50.980;13.892;2024-01-15T02:03:44;87207.69;;;-142.97;52.39
8451;BME280;4262;50.980;13.892;2024-01-15T02:06:13;87219.53;;;-142.97;52.38
8451;BME280;4262;50.980;13.892;2024-01-15T02:08:42;87150.53;;;-142.97;52.07
8451;BME280;4262;50.980;13.892;2024-01-15T02:11:10;87253.03;;;-142.97;nan
8451;BME280;4262;50.980;13.892;2024-01-15T02:13:38;87203.75;;;-142.97;52.31
8451;BME280;4262;50.980;13.892;2024-01-15T02:16:06;87209.66;;;-142.97;52.57
8451;BME280;4262;50.980;13.892;2024-01-15T02:18:40;87255.00;;;-142.97;52.33
8451;BME280;4262;50.980;13.892;2024-01-15T02:21:07;87233.31;;;-142.97;52.65
8451;BME280;4262;50.980;13.892;2024-01-15T02:23:35;87211.63;;;-142.97;52.96
8451;BME280;4262;50.980;13.892;2024-01-15T02:26:02;87235.28;;;-142.97;52.81
8451;BME280;4262;50.980;13.892;2024-01-15T02:28:29;87235.28;;;-142.97;52.22
8451;BME280;4262;50.980;13.892;2024-01-15T02:30:56;87229.38;;;-142.97;52.53
8451;BME280;4262;50.980;13.892;2024-01-15T02:33:23;87241.19;;;-142.97;52.94
8451;BME280;4262;50.980;13.892;2024-01-15T02:35:50;87255.00;;;-142.97;52.91
8451;BME280;4262;50.980;13.892;2024-01-15T02:38:16;87322.00;;;-142.97;52.51
8451;BME280;4262;50.980;13.892;2024-01-15T02:40:45;87111.13;;;-142.97;52.31
8451;BME280;4262;50.980;13.892;2024-01-15T02:43:12;87201.78;;;-142.97;52.48
8451;BME280;4262;50.980;13.892;2024-01-15T02:45:39;87266.81;;;-142.97;52.86
8451;BME280;4262;50.980;13.892;2024-01-15T02:48:06;87207.69;;;-142.97;52.30
8451;BME280;4262;50.980;13.892;2024-01-15T02:50:33;87304.25;;;-142.97;53.03
8451;BME280;4262;50.980;13.892;2024-01-15T02:52:59;87217.56;;;-142.97;52.52
8451;BME280;4262;50.980;13.892;2024-01-15T02:55:26;87260.91;;;-142.97;52.69
8451;BME280;4262;50.980;13.892;2024-01-15T02:57:56;87251.06;;;-142.97;52.77
8451;BME280;4262;50.980;13.892;2024-01-15T03:00:23;87255.00;;;-142.97;53.06
8451;BME280;4262;50.980;13.892;2024-01-15T03:02:50;87276.69;;;-142.97;53.01
8451;BME280;4262;50.980;13.892;2024-01-15T03:05:17;87280.63;;;-142.97;52.99
8451;BME280;4262;50.980;13.892;2024-01-15T03:07:44;87255.00;;;-142.97;52.88
8451;BME280;4262;50.980;13.892;2024-01-15T03:10:11;87251.06;;;-142.97;52.77
8451;BME280;4262;50.980;13.892;2024-01-15T03:12:38;87237.25;;;-142.97;53.15
8451;BME280;4262;50.980;13.892;2024-01-15T03:15:06;87323.97;;;-142.97;53.39
8451;BME280;4262;50.980;13.892;2024-01-15T03:17:33;87274.69;;;-142.97;53.37
8451;BME280;4262;50.980;13.892;2024-01-15T03:20:00;87302.28;;;-142.97;53.13
8451;BME280;4262;50.980;13.892;2024-01-15T03:22:28;87288.50;;;-142.97;53.42
8451;BME280;4262;50.980;13.892;2024-01-15T03:24:55;87337.78;;;-142.97;52.98
8451;BME280;4262;50.980;13.892;2024-01-15T03:27:21;87282.59;;;-142.97;53.32
8451;BME280;4262;50.980;13.892;2024-01-15T03:29:48;87282.59;;;-142.97;53.14
8451;BME280;4262;50.980;13.892;2024-01-15T03:32:17;87304.25;;;-142.97;52.69
8451;BME280;4262;50.980;13.892;2024-01-15T03:34:45;87237.25;;;-142.97;52.40
8451;BME280;4262;50.980;13.892;2024-01-15T03:37:13;87270.75;;;-142.97;52.60
8451;BME280;4262;50.980;13.892;2024-01-15T03:39:40;87233.31;;;-142.97;52.28
8451;BME280;4262;50.980;13.892;2024-01-15T03:42:07;87256.97;;;-142.97;52.48
8451;BME280;4262;50.980;13.892;2024-01-15T03:44:33;87282.59;;;-142.97;52.55
8451;BME280;4262;50.980;13.892;2024-01-15T03:47:01;87286.53;;;-142.97;52.57
8451;BME280;4262;50.980;13.892;2024-01-15T03:49:29;87284.56;;;-142.97;52.63
8451;BME280;4262;50.980;13.892;2024-01-15T03:51:55;87268.78;;;-142.97;52.61
8451;BME280;4262;50.980;13.892;2024-01-15T03:54:22;87294.41;;;-142.97;52.77
8451;BME280;4262;50.980;13.892;2024-01-15T03:56:49;87258.94;;;-142.97;52.84
8451;BME280;4262;50.980;13.892;2024-01-15T03:59:17;87191.94;;;-142.97;52.75
8451;BME280;4262;50.980;13.892;2024-01-15T04:01:48;87292.44;;;-142.97;52.87
8451;BME280;4262;50.980;13.892;2024-01-15T04:04:18;87333.81;;;-142.97;52.86
8451;BME280;4262;50.980;13.892;2024-01-15T04:06:46;87339.75;;;-142.97;53.91
8451;BME280;4262;50.980;13.892;2024-01-15T04:09:14;87320.03;;;-142.97;53.85
8451;BME280;4262;50.980;13.892;2024-01-15T04:11:41;87359.44;;;-142.97;54.04
8451;BME280;4262;50.980;13.892;2024-01-15T04:14:08;87306.25;;;-142.97;53.97
8451;BME280;4262;50.980;13.892;2024-01-15T04:16:34;87367.34;;;-142.97;53.89
8451;BME280;4262;50.980;13.892;2024-01-15T04:19:01;87316.09;;;-142.97;54.17
8451;BME280;4262;50.980;13.892;2024-01-15T04:21:28;87306.25;;;-142.97;54.07
8451;BME280;4262;50.980;13.892;2024-01-15T04:23:56;87359.44;;;-142.97;54.48
8451;BME280;4262;50.980;13.892;2024-01-15T04:26:23;87353.53;;;-142.97;54.51
8451;BME280;4262;50.980;13.892;2024-01-15T04:28:50;87316.09;;;-142.97;54.26
8451;BME280;4262;50.980;13.892;2024-01-15T04:31:23;87320.03;;;-142.97;54.33
8451;BME280;4262;50.980;13.892;2024-01-15T04:33:52;87394.94;;;-142.97;54.32
8451;BME280;4262;50.980;13.892;2024-01-15T04:36:19;87343.69;;;-142.97;54.58
8451;BME280;4262;50.980;13.892;2024-01-15T04:38:45;87355.50;;;-142.97;54.05
8451;BME280;4262;50.980;13.892;2024-01-15T04:41:14;87304.25;;;-142.97;53.90
8451;BME280;4262;50.980;13.892;2024-01-15T04:43:42;87320.03;;;-142.97;54.09
8451;BME280;4262;50.980;13.892;2024-01-15T04:46:09;87353.53;;;-142.97;53.97
8451;BME280;4262;50.980;13.892;2024-01-15T04:48:36;87335.81;;;-142.97;53.75
8451;BME280;4262;50.980;13.892;2024-01-15T04:51:04;87266.81;;;-142.97;53.72
8451;BME280;4262;50.980;13.892;2024-01-15T04:53:31;87320.03;;;-142.97;53.42
8451;BME280;4262;50.980;13.892;2024-01-15T04:55:58;87314.13;;;-142.97;53.50
8451;BME280;4262;50.980;13.892;2024-01-15T04:58:25;87306.25;;;-142.97;53.25
8451;BME280;4262;50.980;13.892;2024-01-15T05:00:55;87335.81;;;-142.97;53.60
8451;BME280;4262;50.980;13.892;2024-01-15T05:03:22;87420.56;;;-142.97;53.84
8451;BME280;4262;50.980;13.892;2024-01-15T05:05:49;87361.41;;;-142.97;53.52
8451;BME280;4262;50.980;13.892;2024-01-15T05:08:16;87351.56;;;-142.97;53.73
8451;BME280;4262;50.980;13.892;2024-01-15T05:10:43;87363.41;;;-142.97;53.61
8451;BME280;4262;50.980;13.892;2024-01-15T05:13:10;87266.81;;;-142.97;53.82
8451;BME280;4262;50.980;13.892;2024-01-15T05:15:39;87343.69;;;-142.97;53.47
8451;BME280;4262;50.980;13.892;2024-01-15T05:18:06;87373.25;;;-142.97;53.90
8451;BME280;4262;50.980;13.892;2024-01-15T05:20:32;87357.47;;;-142.97;53.95
8451;BME280;4262;50.980;13.892;2024-01-15T05:22:59;87331.84;;;-142.97;53.44
8451;BME280;4262;50.980;13.892;2024-01-15T05:25:26;87339.75;;;-142.97;53.22
8451;BME280;4262;50.980;13.892;2024-01-15T05:27:53;87347.63;;;-142.97;53.44
8451;BME280;4262;50.980;13.892;2024-01-15T05:30:20;87308.22;;;-142.97;53.29
8451;BME280;4262;50.980;13.892;2024-01-15T05:32:48;87349.59;;;-142.97;53.20
8451;BME280;4262;50.980;13.892;2024-01-15T05:35:15;87331.84;;;-142.97;53.29
8451;BME280;4262;50.980;13.892;2024-01-15T05:37:44;87353.53;;;-142.97;53.66
8451;BME280;4262;50.980;13.892;2024-01-15T05:40:11;87314.13;;;-142.97;53.20
8451;BME280;4262;50.980;13.892;2024-01-15T05:42:39;87343.69;;;-142.97;53.15
8451;BME280;4262;50.980;13.892;2024-01-15T05:45:06;87367.34;;;-142.97;53.17
8451;BME280;4262;50.980;13.892;2024-01-15T05:47:34;87325.94;;;-142.97;53.01
8451;BME280;4262;50.980;13.892;2024-01-15T05:50:02;87335.81;;;-142.97;52.89
8451;BME280;4262;50.980;13.892;2024-01-15T05:52:29;87329.88;;;-142.97;52.76
8451;BME280;4262;50.980;13.892;2024-01-15T05:54:56;87318.06;;;-142.97;52.31
8451;BME280;4262;50.980;13.892;2024-01-15T05:57:23;87375.22;;;-142.97;52.53
8451;BME280;4262;50.980;13.892;2024-01-15T05:59:53;87337.78;;;-142.97;52.58
8451;BME280;4262;50.980;13.892;2024-01-15T06:02:20;87335.81;;;-142.97;52.78
8451;BME280;4262;50.980;13.892;2024-01-15T06:04:47;87323.97;;;-142.97;52.86
8451;BME280;4262;50.980;13.892;2024-01-15T06:07:15;87337.78;;;-142.97;52.74
8451;BME280;4262;50.980;13.892;2024-01-15T06:09:41;87314.13;;;-142.97;52.81
8451;BME280;4262;50.980;13.892;2024-01-15T06:12:08;87355.50;;;-142.97;52.49
8451;BME280;4262;50.980;13.892;2024-01-15T06:14:35;87331.84;;;-142.97;52.55
8451;BME280;4262;50.980;13.892;2024-01-15T06:17:02;87331.84;;;-142.97;52.07
8451;BME280;4262;50.980;13.892;2024-01-15T06:19:29;87296.38;;;-142.97;52.30
8451;BME280;4262;50.980;13.892;2024-01-15T06:21:56;87335.81;;;-142.97;52.04
8451;BME280;4262;50.980;13.892;2024-01-15T06:24:24;87333.81;;;-142.97;52.16
8451;BME280;4262;50.980;13.892;2024-01-15T06:26:51;87377.19;;;-142.97;52.42
8451;BME280;4262;50.980;13.892;2024-01-15T06:29:19;87276.69;;;-142.97;51.77
8451;BME280;4262;50.980;13.892;2024-01-15T06:31:46;87306.25;;;-142.97;51.82
8451;BME280;4262;50.980;13.892;2024-01-15T06:34:15;87379.16;;;-142.97;51.77
8451;BME280;4262;50.980;13.892;2024-01-15T06:36:42;87288.50;;;-142.97;51.73
8451;BME280;4262;50.980;13.892;2024-01-15T06:39:09;87310.19;;;-142.97;51.53
8451;BME280;4262;50.980;13.892;2024-01-15T06:41:37;87375.22;;;-142.97;51.20
8451;BME280;4262;50.980;13.892;2024-01-15T06:44:08;87347.63;;;-142.97;51.54
8451;BME280;4262;50.980;13.892;2024-01-15T06:46:35;87292.44;;;-142.97;51.43
8451;BME280;4262;50.980;13.892;2024-01-15T06:49:05;87320.03;;;-142.97;51.61
8451;BME280;4262;50.980;13.892;2024-01-15T06:51:32;87331.84;;;-142.97;51.66
8451;BME280;4262;50.980;13.892;2024-01-15T06:53:59;87337.78;;;-142.97;51.40
8451;BME280;4262;50.980;13.892;2024-01-15T06:56:26;87333.81;;;-142.97;51.40
8451;BME280;4262;50.980;13.892;2024-01-15T06:58:54;87314.13;;;-142.97;51.55
8451;BME280;4262;50.980;13.892;2024-01-15T07:01:21;87353.53;;;-142.97;51.86
8451;BME280;4262;50.980;13.892;2024-01-15T07:03:48;87387.03;;;-142.97;51.54
8451;BME280;4262;50.980;13.892;2024-01-15T07:06:17;87351.56;;;-142.97;51.51
8451;BME280;4262;50.980;13.892;2024-01-15T07:08:43;87280.63;;;-142.97;51.36
8451;BME280;4262;50.980;13.892;2024-01-15T07:11:10;87306.25;;;-142.97;50.74
8451;BME280;4262;50.980;13.892;2024-01-15T07:13:37;87312.16;;;-142.97;50.75
8451;BME280;4262;50.980;13.892;2024-01-15T07:16:06;87286.53;;;-142.97;51.05
8451;BME280;4262;50.980;13.892;2024-01-15T07:18:33;87325.94;;;-142.97;50.91
8451;BME280;4262;50.980;13.892;2024-01-15T07:20:59;87322.00;;;-142.97;51.16
8451;BME280;4262;50.980;13.892;2024-01-15T07:23:27;87292.44;;;-142.97;50.86
8451;BME280;4262;50.980;13.892;2024-01-15T07:25:53;87256.97;;;-142.97;50.70
8451;BME280;4262;50.980;13.892;2024-01-15T07:28:20;87316.09;;;-142.97;50.71
8451;BME280;4262;50.980;13.892;2024-01-15T07:30:47;87306.25;;;-142.97;50.78
8451;BME280;4262;50.980;13.892;2024-01-15T07:33:15;87294.41;;;-142.97;50.51
8451;BME280;4262;50.980;13.892;2024-01-15T07:35:42;87323.97;;;-142.97;50.96
8451;BME280;4262;50.980;13.892;2024-01-15T07:38:09;87264.84;;;-142.97;50.42
8451;BME280;4262;50.980;13.892;2024-01-15T07:40:37;87256.97;;;-142.97;50.48
8451;BME280;4262;50.980;13.892;2024-01-15T07:43:04;87256.97;;;-142.97;50.59
8451;BME280;4262;50.980;13.892;2024-01-15T07:45:30;87294.41;;;-142.97;50.34
8451;BME280;4262;50.980;13.892;2024-01-15T07:47:58;87323.97;;;-142.97;50.99
8451;BME280;4262;50.980;13.892;2024-01-15T07:50:26;87302.28;;;-142.97;51.20
8451;BME280;4262;50.980;13.892;2024-01-15T07:52:53;87284.56;;;-142.97;51.05
8451;BME280;4262;50.980;13.892;2024-01-15T07:55:20;87296.38;;;-142.97;50.84
8451;BME280;4262;50.980;13.892;2024-01-15T07:57:46;87262.88;;;-142.97;50.59
8451;BME280;4262;50.980;13.892;2024-01-15T08:00:14;87310.19;;;-142.97;50.69
8451;BME280;4262;50.980;13.892;2024-01-15T08:02:41;87304.25;;;-142.97;50.60
8451;BME280;4262;50.980;13.892;2024-01-15T08:05:08;87331.84;;;-142.97;50.52
8451;BME280;4262;50.980;13.892;2024-01-15T08:07:36;87270.75;;;-142.97;50.54
8451;BME280;4262;50.980;13.892;2024-01-15T08:10:03;87294.41;;;-142.97;50.73
8451;BME280;4262;50.980;13.892;2024-01-15T08:12:30;87286.53;;;-142.97;50.58
8451;BME280;4262;50.980;13.892;2024-01-15T08:14:57;87247.13;;;-142.97;50.11
8451;BME280;4262;50.980;13.892;2024-01-15T08:17:24;87245.13;;;-142.97;49.84
8451;BME280;4262;50.980;13.892;2024-01-15T08:19:54;87258.94;;;-142.97;49.97
8451;BME280;4262;50.980;13.892;2024-01-15T08:22:22;87247.13;;;-142.97;49.59
8451;BME280;4262;50.980;13.892;2024-01-15T08:24:50;87243.16;;;-142.97;49.72
8451;BME280;4262;50.980;13.892;2024-01-15T08:27:17;87241.19;;;-142.97;49.78
8451;BME280;4262;50.980;13.892;2024-01-15T08:29:45;87215.56;;;-142.97;49.87
8451;BME280;4262;50.980;13.892;2024-01-15T08:32:14;87229.38;;;-142.97;49.80
8451;BME280;4262;50.980;13.892;2024-01-15T08:34:41;87249.09;;;-142.97;49.53
8451;BME280;4262;50.980;13.892;2024-01-15T08:37:08;87249.09;;;-142.97;49.67
8451;BME280;4262;50.980;13.892;2024-01-15T08:39:35;87199.81;;;-142.97;49.36
8451;BME280;4262;50.980;13.892;2024-01-15T08:42:08;87207.69;;;-142.97;48.90
8451;BME280;4262;50.980;13.892;2024-01-15T08:44:37;87237.25;;;-142.97;49.71
8451;BME280;4262;50.980;13.892;2024-01-15T08:47:05;87164.34;;;-142.97;49.41
8451;BME280;4262;50.980;13.892;2024-01-15T08:49:32;87272.72;;;-142.97;49.13
8451;BME280;4262;50.980;13.892;2024-01-15T08:51:58;87223.47;;;-142.97;49.60
8451;BME280;4262;50.980;13.892;2024-01-15T08:54:25;87184.03;;;-142.97;49.62
8451;BME280;4262;50.980;13.892;2024-01-15T08:56:52;87233.31;;;-142.97;49.50
8451;BME280;4262;50.980;13.892;2024-01-15T08:59:20;87219.53;;;-142.97;49.82
8451;BME280;4262;50.980;13.892;2024-01-15T09:01:51;87239.22;;;-142.97;49.82
8451;BME280;4262;50.980;13.892;2024-01-15T09:04:18;87136.75;;;-142.97;49.82
8451;BME280;4262;50.980;13.892;2024-01-15T09:06:45;87201.78;;;-142.97;49.38
8451;BME280;4262;50.980;13.892;2024-01-15T09:09:13;87195.88;;;-142.97;49.50
8451;BME280;4262;50.980;13.892;2024-01-15T09:11:40;87239.22;;;-142.97;49.33
8451;BME280;4262;50.980;13.892;2024-01-15T09:14:07;87245.13;;;-142.97;49.09
8451;BME280;4262;50.980;13.892;2024-01-15T09:16:36;87158.44;;;-142.97;49.37
8451;BME280;4262;50.980;13.892;2024-01-15T09:19:03;87162.38;;;-142.97;49.29
8451;BME280;4262;50.980;13.892;2024-01-15T09:21:31;87119.00;;;-142.97;48.90
8451;BME280;4262;50.980;13.892;2024-01-15T09:23:57;87105.22;;;-142.97;48.79
8451;BME280;4262;50.980;13.892;2024-01-15T09:26:27;87101.28;;;-142.97;48.04
8451;BME280;4262;50.980;13.892;2024-01-15T09:28:53;87061.84;;;-142.97;48.13
8451;BME280;4262;50.980;13.892;2024-01-15T09:31:20;87083.53;;;-142.97;48.02
8451;BME280;4262;50.980;13.892;2024-01-15T09:33:49;87083.53;;;-142.97;47.52
8451;BME280;4262;50.980;13.892;2024-01-15T09:36:17;86992.88;;;-142.97;46.82
8451;BME280;4262;50.980;13.892;2024-01-15T09:38:44;86994.84;;;-142.97;46.92
8451;BME280;4262;50.980;13.892;2024-01-15T09:41:11;87010.63;;;-142.97;46.85
8451;BME280;4262;50.980;13.892;2024-01-15T09:43:38;87142.66;;;-142.97;46.82
8451;BME280;4262;50.980;13.892;2024-01-15T09:46:05;87079.59;;;-142.97;46.63
8451;BME280;4262;50.980;13.892;2024-01-15T09:48:32;87061.84;;;-142.97;46.96
8451;BME280;4262;50.980;13.892;2024-01-15T09:51:02;87026.38;;;-142.97;46.46
8451;BME280;4262;50.980;13.892;2024-01-15T09:53:29;87020.47;;;-142.97;46.68
8451;BME280;4262;50.980;13.892;2024-01-15T09:55:58;87010.63;;;-142.97;46.76
8451;BME280;4262;50.980;13.892;2024-01-15T09:58:25;86929.81;;;-142.97;45.92
8451;BME280;4262;50.980;13.892;2024-01-15T10:00:51;86992.88;;;-142.97;45.86
8451;BME280;4262;50.980;13.892;2024-01-15T10:03:18;86967.25;;;-142.97;46.14
8451;BME280;4262;50.980;13.892;2024-01-15T10:05:46;86849.03;;;-142.97;46.03
8451;BME280;4262;50.980;13.892;2024-01-15T10:08:15;86411.56;;;-142.97;44.49
8451;BME280;4262;50.980;13.892;2024-01-15T10:10:42;86902.22;;;-142.97;43.61
8451;BME280;4262;50.980;13.892;2024-01-15T10:13:09;86981.06;;;-142.97;44.36
8451;BME280;4262;50.980;13.892;2024-01-15T10:15:37;87050.03;;;-142.97;45.61
8451;BME280;4262;50.980;13.892;2024-01-15T10:18:05;87091.41;;;-142.97;45.78
8451;BME280;4262;50.980;13.892;2024-01-15T10:20:32;87010.63;;;-142.97;45.52
8451;BME280;4262;50.980;13.892;2024-01-15T10:22:59;87008.66;;;-142.97;45.97
8451;BME280;4262;50.980;13.892;2024-01-15T10:25:27;86882.53;;;-142.97;44.98
8451;BME280;4262;50.980;13.892;2024-01-15T10:28:00;87016.53;;;-142.97;45.50
8451;BME280;4262;50.980;13.892;2024-01-15T10:30:28;85962.38;;;-142.97;44.72
8451;BME280;4262;50.980;13.892;2024-01-15T10:32:59;86927.84;;;-142.97;44.04
8451;BME280;4262;50.980;13.892;2024-01-15T10:35:28;86114.06;;;-142.97;44.24
8451;BME280;4262;50.980;13.892;2024-01-15T10:37:55;85944.63;;;-142.97;42.07
8451;BME280;4262;50.980;13.892;2024-01-15T10:40:22;86173.16;;;-142.97;40.50
8451;BME280;4262;50.980;13.892;2024-01-15T10:42:55;86346.56;;;-142.97;41.20
8451;BME280;4262;50.980;13.892;2024-01-15T10:45:22;86555.41;;;-142.97;41.67
8451;BME280;4262;50.980;13.892;2024-01-15T10:47:53;86250.00;;;-142.97;42.35
8451;BME280;4262;50.980;13.892;2024-01-15T10:50:20;86019.50;;;-142.97;40.59
8451;BME280;4262;50.980;13.892;2024-01-15T10:52:51;85956.44;;;-142.97;39.26
8451;BME280;4262;50.980;13.892;2024-01-15T10:55:19;86332.75;;;-142.97;39.65
8451;BME280;4262;50.980;13.892;2024-01-15T10:57:48;85684.59;;;-142.97;39.97
8451;BME280;4262;50.980;13.892;2024-01-15T11:00:17;86596.78;;;-142.97;39.94
8451;BME280;4262;50.980;13.892;2024-01-15T11:02:44;86748.53;;;-142.97;40.54
8451;BME280;4262;50.980;13.892;2024-01-15T11:05:11;86535.72;;;-142.97;41.96
8451;BME280;4262;50.980;13.892;2024-01-15T11:07:39;86906.16;;;-142.97;42.57
8451;BME280;4262;50.980;13.892;2024-01-15T11:10:08;85885.53;;;-142.97;41.66
8451;BME280;4262;50.980;13.892;2024-01-15T11:12:55;85846.13;;;-142.97;39.98
8451;BME280;4262;50.980;13.892;2024-01-15T11:15:23;86663.78;;;-142.97;40.76
8451;BME280;4262;50.980;13.892;2024-01-15T11:17:58;86565.25;;;-142.97;41.21
8451;BME280;4262;50.980;13.892;2024-01-15T11:20:25;86799.75;;;-142.97;42.06
8451;BME280;4262;50.980;13.892;2024-01-15T11:22:52;86746.56;;;-142.97;42.50
8451;BME280;4262;50.980;13.892;2024-01-15T11:25:19;86630.28;;;-142.97;42.19
8451;BME280;4262;50.980;13.892;2024-01-15T11:27:50;86598.75;;;-142.97;41.82
8451;BME280;4262;50.980;13.892;2024-01-15T11:30:18;86460.84;;;-142.97;42.11
8451;BME280;4262;50.980;13.892;2024-01-15T11:32:47;86490.38;;;-142.97;41.29
8451;BME280;4262;50.980;13.892;2024-01-15T11:35:14;86159.38;;;-142.97;41.05
8451;BME280;4262;50.980;13.892;2024-01-15T11:37:57;86644.09;;;-142.97;41.22
8451;BME280;4262;50.980;13.892;2024-01-15T11:40:37;86508.13;;;-142.97;41.95
8451;BME280;4262;50.980;13.892;2024-01-15T11:43:05;86592.84;;;-142.97;41.66
8451;BME280;4262;50.980;13.892;2024-01-15T11:45:32;86579.06;;;-142.97;41.25
8451;BME280;4262;50.980;13.892;2024-01-15T11:48:15;86667.72;;;-142.97;41.80
8451;BME280;4262;50.980;13.892;2024-01-15T11:50:43;86754.44;;;-142.97;42.41
8451;BME280;4262;50.980;13.892;2024-01-15T11:53:17;86805.66;;;-142.97;43.05
8451;BME280;4262;50.980;13.892;2024-01-15T11:55:45;86805.66;;;-142.97;42.50
8451;BME280;4262;50.980;13.892;2024-01-15T11:58:16;86531.78;;;-142.97;42.31
8451;BME280;4262;50.980;13.892;2024-01-15T12:00:45;86391.88;;;-142.97;42.13
8451;BME280;4262;50.980;13.892;2024-01-15T12:03:14;86525.84;;;-142.97;42.16
8451;BME280;4262;50.980;13.892;2024-01-15T12:05:41;86569.22;;;-142.97;42.05
8451;BME280;4262;50.980;13.892;2024-01-15T12:08:08;86689.41;;;-142.97;42.29
8451;BME280;4262;50.980;13.892;2024-01-15T12:10:37;86651.97;;;-142.97;42.48
8451;BME280;4262;50.980;13.892;2024-01-15T12:13:10;86738.66;;;-142.97;43.12
8451;BME280;4262;50.980;13.892;2024-01-15T12:15:37;86862.81;;;-142.97;42.52
8451;BME280;4262;50.980;13.892;2024-01-15T12:18:08;86807.63;;;-142.97;42.80
8451;BME280;4262;50.980;13.892;2024-01-15T12:20:36;86937.69;;;-142.97;43.83
8451;BME280;4262;50.980;13.892;2024-01-15T12:23:03;87004.72;;;-142.97;44.29
8451;BME280;4262;50.980;13.892;2024-01-15T12:25:31;86880.56;;;-142.97;44.44
8451;BME280;4262;50.980;13.892;2024-01-15T12:27:59;86868.72;;;-142.97;43.97
8451;BME280;4262;50.980;13.892;2024-01-15T12:30:27;86835.22;;;-142.97;44.37
8451;BME280;4262;50.980;13.892;2024-01-15T12:32:54;86894.34;;;-142.97;44.67
8451;BME280;4262;50.980;13.892;2024-01-15T12:35:20;86918.00;;;-142.97;44.09
8451;BME280;4262;50.980;13.892;2024-01-15T12:37:49;86951.50;;;-142.97;44.72
8451;BME280;4262;50.980;13.892;2024-01-15T12:40:19;86939.69;;;-142.97;45.13
8451;BME280;4262;50.980;13.892;2024-01-15T12:42:46;86929.81;;;-142.97;45.08
8451;BME280;4262;50.980;13.892;2024-01-15T12:45:15;86933.75;;;-142.97;45.21
8451;BME280;4262;50.980;13.892;2024-01-15T12:47:42;86963.31;;;-142.97;45.97
8451;BME280;4262;50.980;13.892;2024-01-15T12:50:10;86892.38;;;-142.97;45.54
8451;BME280;4262;50.980;13.892;2024-01-15T12:52:37;86935.72;;;-142.97;45.84